Time;durP1;ratioP1;P1;durP2;ratioP2;P2;SDS_P1;SDS_P2;PMS_P1;PMS_P2;Temp;Humidity;BMP_temperature;BMP_pressure;BME280_temperature;BME280_humidity;BME280_pressure;Samples;Min_cycle;Max_cycle;Signal;HPM_P1;HPM_P2
2023/10/24 00:00:09;;;;;;;5.80;2.63;;;11.90;99.90;;;;;;4911429;28;20552;-66
2023/10/24 00:02:35;;;;;;;9.53;2.53;;;11.90;99.90;;;;;;4911633;28;20184;-66
2023/10/24 00:05:00;;;;;;;3.73;2.10;;;11.90;99.90;;;;;;4903294;28;20645;-66
2023/10/24 00:07:26;;;;;;;5.50;2.40;;;11.90;99.90;;;;;;4911397;28;20685;-66
2023/10/24 00:09:51;;;;;;;3.90;2.30;;;11.90;99.90;;;;;;4911567;28;20558;-66
2023/10/24 00:12:17;;;;;;;5.20;2.87;;;11.90;99.90;;;;;;4911169;28;20184;-66
2023/10/24 00:14:42;;;;;;;5.50;3.10;;;11.90;99.90;;;;;;4911035;28;20187;-66
2023/10/24 00:17:08;;;;;;;5.67;2.20;;;12.00;99.90;;;;;;4910974;28;20186;-66
2023/10/24 00:19:34;;;;;;;7.40;2.50;;;12.00;99.90;;;;;;4910376;28;20681;-66
2023/10/24 00:22:00;;;;;;;3.87;2.10;;;12.00;99.90;;;;;;4911671;28;20279;-66
2023/10/24 00:24:27;;;;;;;10.80;2.40;;;12.00;99.90;;;;;;4910927;28;20203;-66
2023/10/24 00:26:54;;;;;;;11.03;2.63;;;11.90;99.90;;;;;;4911430;28;20179;-66
2023/10/24 00:29:19;;;;;;;8.97;2.23;;;11.90;99.90;;;;;;4911340;28;20251;-66
2023/10/24 00:31:45;;;;;;;8.17;2.37;;;11.90;99.90;;;;;;4911547;28;20559;-66
2023/10/24 00:34:12;;;;;;;7.27;3.00;;;12.00;99.90;;;;;;4913732;28;20295;-66
2023/10/24 00:36:39;;;;;;;9.37;2.50;;;11.90;99.90;;;;;;4914761;28;20168;-66
2023/10/24 00:39:05;;;;;;;8.33;2.77;;;11.90;99.90;;;;;;4914702;28;20211;-66
2023/10/24 00:41:31;;;;;;;5.07;2.43;;;11.80;99.90;;;;;;4915506;28;20172;-67
2023/10/24 00:43:57;;;;;;;6.97;3.63;;;11.80;99.90;;;;;;4906836;28;20180;-66
2023/10/24 00:46:23;;;;;;;6.03;2.70;;;11.90;99.90;;;;;;4914562;28;20210;-66
2023/10/24 00:48:49;;;;;;;5.90;2.80;;;11.80;99.90;;;;;;4914422;28;20588;-67
2023/10/24 00:51:15;;;;;;;4.13;2.90;;;11.80;99.90;;;;;;4914668;28;20258;-66
2023/10/24 00:53:41;;;;;;;6.20;2.60;;;11.80;99.90;;;;;;4914074;28;20242;-66
2023/10/24 00:56:08;;;;;;;9.13;3.20;;;11.90;99.90;;;;;;4914215;28;20669;-66
2023/10/24 00:58:37;;;;;;;4.83;2.83;;;11.90;99.90;;;;;;4914743;28;20208;-66
2023/10/24 01:01:10;;;;;;;5.67;3.20;;;11.90;99.90;;;;;;4906912;28;20547;-66
2023/10/24 01:03:36;;;;;;;7.37;3.17;;;11.90;99.90;;;;;;4912502;28;20191;-66
2023/10/24 01:06:02;;;;;;;6.17;3.23;;;11.90;99.90;;;;;;4914232;28;20684;-66
2023/10/24 01:08:28;;;;;;;14.73;3.67;;;11.90;99.90;;;;;;4911162;28;20200;-66
2023/10/24 01:10:53;;;;;;;9.53;4.00;;;11.80;99.90;;;;;;4903013;28;20195;-66
2023/10/24 01:13:19;;;;;;;9.33;3.53;;;11.90;99.90;;;;;;4910458;28;20218;-67
2023/10/24 01:15:44;;;;;;;10.10;5.07;;;11.90;99.90;;;;;;4914146;28;20211;-67
2023/10/24 01:18:10;;;;;;;7.33;4.13;;;11.80;99.90;;;;;;4913932;28;20200;-67
2023/10/24 01:20:42;;;;;;;10.57;4.80;;;11.90;99.90;;;;;;4914145;28;20251;-66
2023/10/24 01:23:08;;;;;;;8.97;4.33;;;11.90;99.90;;;;;;4946150;28;20186;-66
2023/10/24 01:25:39;;;;;;;15.63;6.07;;;11.80;99.90;;;;;;4914240;28;20187;-67
2023/10/24 01:28:06;;;;;;;9.47;4.80;;;11.80;99.90;;;;;;4906165;28;20688;-66
2023/10/24 01:30:32;;;;;;;9.17;5.67;;;11.70;99.90;;;;;;4913857;28;20180;-67
2023/10/24 01:32:58;;;;;;;13.17;5.90;;;11.70;99.90;;;;;;4912993;28;20220;-66
2023/10/24 01:35:23;;;;;;;12.70;5.53;;;11.60;99.90;;;;;;4913762;28;20238;-66
2023/10/24 01:37:49;;;;;;;10.63;5.23;;;11.60;99.90;;;;;;4913756;28;20196;-66
2023/10/24 01:40:15;;;;;;;9.27;5.00;;;11.60;99.90;;;;;;4913766;28;20712;-66
2023/10/24 01:42:40;;;;;;;13.57;5.87;;;11.60;99.90;;;;;;4909626;28;20188;-66
2023/10/24 01:45:07;;;;;;;8.40;4.90;;;11.60;99.90;;;;;;4908299;28;20180;-66
2023/10/24 01:47:33;;;;;;;10.13;4.60;;;11.60;99.90;;;;;;4905714;28;20262;-67
2023/10/24 01:49:58;;;;;;;9.67;4.30;;;11.50;99.90;;;;;;4904647;28;20188;-67
2023/10/24 01:52:24;;;;;;;9.50;4.20;;;11.50;99.90;;;;;;4913235;28;20230;-67
2023/10/24 01:54:49;;;;;;;15.47;4.57;;;11.50;99.90;;;;;;4913221;28;20204;-66
2023/10/24 01:57:16;;;;;;;8.30;3.93;;;11.50;99.90;;;;;;4913218;28;20192;-67
2023/10/24 01:59:42;;;;;;;6.60;3.47;;;11.50;99.90;;;;;;4913567;28;20274;-66
2023/10/24 02:02:07;;;;;;;6.53;3.77;;;11.40;99.90;;;;;;4913466;28;20271;-66
2023/10/24 02:04:33;;;;;;;8.67;4.47;;;11.40;99.90;;;;;;4905217;28;20187;-66
2023/10/24 02:06:58;;;;;;;11.40;4.33;;;11.40;99.90;;;;;;4913389;28;20756;-66
2023/10/24 02:09:24;;;;;;;26.90;6.17;;;11.40;99.90;;;;;;4913146;28;20212;-66
2023/10/24 02:11:50;;;;;;;7.77;4.23;;;11.30;99.90;;;;;;4913504;28;20587;-66
2023/10/24 02:14:15;;;;;;;9.27;5.33;;;11.30;99.90;;;;;;4912354;28;20211;-66
2023/10/24 02:16:41;;;;;;;19.73;7.07;;;11.40;99.90;;;;;;4913028;28;20538;-66
2023/10/24 02:19:06;;;;;;;13.40;6.93;;;11.30;99.90;;;;;;4913078;28;20257;-66
2023/10/24 02:21:32;;;;;;;12.83;7.20;;;11.30;99.90;;;;;;4912881;28;20180;-66
2023/10/24 02:23:58;;;;;;;13.13;6.53;;;11.30;99.90;;;;;;4912606;28;20691;-66
2023/10/24 02:26:23;;;;;;;13.37;6.70;;;11.30;99.90;;;;;;4912907;28;20184;-67
2023/10/24 02:28:49;;;;;;;16.23;6.70;;;11.20;99.90;;;;;;4913014;28;20575;-66
2023/10/24 02:31:14;;;;;;;9.73;5.73;;;11.10;99.90;;;;;;4912896;28;20266;-66
2023/10/24 02:33:40;;;;;;;14.93;7.27;;;11.10;99.90;;;;;;4912265;28;20691;-66
2023/10/24 02:36:10;;;;;;;10.93;6.83;;;11.10;99.90;;;;;;4912566;28;20180;-65
2023/10/24 02:38:37;;;;;;;14.47;6.50;;;11.20;99.90;;;;;;4896441;28;20215;-65
2023/10/24 02:41:03;;;;;;;12.30;6.30;;;11.20;99.90;;;;;;4912834;28;20230;-66
2023/10/24 02:43:29;;;;;;;23.00;7.07;;;11.10;99.90;;;;;;4912158;28;20188;-66
2023/10/24 02:45:56;;;;;;;15.63;7.40;;;11.20;99.90;;;;;;4912712;28;20187;-67
2023/10/24 02:48:21;;;;;;;18.97;9.90;;;11.20;99.90;;;;;;4912493;28;20640;-66
2023/10/24 02:50:54;;;;;;;23.10;9.60;;;11.20;99.90;;;;;;4912839;28;20194;-66
2023/10/24 02:53:20;;;;;;;14.73;8.83;;;11.20;99.90;;;;;;4918146;28;20207;-67
2023/10/24 02:55:46;;;;;;;16.73;9.00;;;11.30;99.90;;;;;;4938550;28;20211;-66
2023/10/24 02:58:11;;;;;;;15.67;9.00;;;11.30;99.90;;;;;;4912222;28;20227;-66
2023/10/24 03:00:37;;;;;;;25.93;8.17;;;11.30;99.90;;;;;;4912534;28;20176;-65
2023/10/24 03:03:02;;;;;;;14.57;6.77;;;11.20;99.90;;;;;;4911836;28;20561;-66
2023/10/24 03:05:28;;;;;;;12.97;7.23;;;11.30;99.90;;;;;;4912524;28;20199;-67
2023/10/24 03:07:54;;;;;;;12.63;6.93;;;11.30;99.90;;;;;;4912448;28;20210;-66
2023/10/24 03:10:20;;;;;;;13.03;7.20;;;11.30;99.90;;;;;;4912485;28;20266;-66
2023/10/24 03:12:45;;;;;;;14.40;7.40;;;11.30;99.90;;;;;;4912055;28;20565;-66
2023/10/24 03:15:11;;;;;;;13.17;7.50;;;11.30;99.90;;;;;;4911949;28;20188;-67
2023/10/24 03:17:37;;;;;;;12.87;7.63;;;11.30;99.90;;;;;;4912351;28;20600;-67
2023/10/24 03:20:04;;;;;;;10.43;6.90;;;11.30;99.90;;;;;;4912386;28;20187;-65
2023/10/24 03:22:30;;;;;;;16.77;8.00;;;11.40;99.90;;;;;;4912509;28;20187;-66
2023/10/24 03:24:56;;;;;;;17.37;7.70;;;11.40;99.90;;;;;;4911555;28;20172;-66
2023/10/24 03:27:22;;;;;;;12.07;7.60;;;11.40;99.90;;;;;;4912026;28;20231;-67
2023/10/24 03:29:47;;;;;;;11.83;7.20;;;11.40;99.90;;;;;;4912230;28;20563;-66
2023/10/24 03:32:13;;;;;;;15.53;7.50;;;11.40;99.90;;;;;;4911929;28;20177;-66
2023/10/24 03:34:39;;;;;;;13.33;7.17;;;11.50;99.90;;;;;;4898462;28;20211;-66
2023/10/24 03:37:05;;;;;;;10.90;6.47;;;11.50;99.90;;;;;;4908295;28;20322;-67
2023/10/24 03:39:30;;;;;;;12.37;6.90;;;11.50;99.90;;;;;;4911896;28;20286;-67
2023/10/24 03:41:56;;;;;;;14.77;7.10;;;11.50;99.90;;;;;;4912180;28;20215;-67
2023/10/24 03:44:23;;;;;;;12.30;6.80;;;11.40;99.90;;;;;;4911274;28;20188;-66
2023/10/24 03:46:49;;;;;;;11.63;6.87;;;11.30;99.90;;;;;;4911951;28;20183;-67
2023/10/24 03:49:15;;;;;;;11.80;7.20;;;11.30;99.90;;;;;;4910243;28;20318;-67
2023/10/24 03:51:41;;;;;;;18.30;7.77;;;11.30;99.90;;;;;;4911700;28;20322;-66
2023/10/24 03:54:06;;;;;;;14.53;6.80;;;11.30;99.90;;;;;;4909889;28;20275;-65
2023/10/24 03:56:32;;;;;;;12.27;7.33;;;11.30;99.90;;;;;;4903842;28;20183;-66
2023/10/24 03:58:59;;;;;;;11.67;6.57;;;11.30;99.90;;;;;;4911627;28;20211;-67
2023/10/24 04:01:24;;;;;;;12.47;7.00;;;11.30;99.90;;;;;;4911456;28;20180;-67
2023/10/24 04:03:50;;;;;;;13.00;6.50;;;11.30;99.90;;;;;;4910985;28;20184;-66
2023/10/24 04:06:16;;;;;;;16.63;7.37;;;11.30;99.90;;;;;;4911683;28;20211;-67
2023/10/24 04:08:42;;;;;;;21.83;7.40;;;11.30;99.90;;;;;;4910852;28;20613;-67
2023/10/24 04:11:15;;;;;;;17.77;7.60;;;11.30;99.90;;;;;;4911706;28;20191;-67
2023/10/24 04:13:42;;;;;;;16.83;7.20;;;11.30;99.90;;;;;;4904064;28;20672;-66
2023/10/24 04:16:07;;;;;;;16.10;6.60;;;11.30;99.90;;;;;;4911691;28;20188;-66
2023/10/24 04:18:33;;;;;;;14.70;6.77;;;11.20;99.90;;;;;;4911340;28;20633;-66
2023/10/24 04:20:59;;;;;;;15.90;7.37;;;11.20;99.90;;;;;;4911604;28;20211;-67
2023/10/24 04:23:24;;;;;;;12.90;7.50;;;11.20;99.90;;;;;;4910742;28;20378;-67
2023/10/24 04:25:50;;;;;;;17.63;6.60;;;11.20;99.90;;;;;;4911509;28;20241;-66
2023/10/24 04:28:15;;;;;;;11.67;6.50;;;11.10;99.90;;;;;;4911236;28;20218;-66
2023/10/24 04:30:41;;;;;;;17.13;5.50;;;11.10;99.90;;;;;;4911449;28;20184;-66
2023/10/24 04:33:10;;;;;;;10.73;4.63;;;11.10;99.90;;;;;;4910655;28;20250;-66
2023/10/24 04:35:47;;;;;;;8.47;4.63;;;11.10;99.90;;;;;;4911376;28;20556;-66
2023/10/24 04:38:13;;;;;;;8.13;4.17;;;11.00;99.90;;;;;;4911279;28;20342;-66
2023/10/24 04:40:39;;;;;;;8.30;4.87;;;11.00;99.90;;;;;;4911357;28;20538;-66
2023/10/24 04:43:06;;;;;;;6.07;3.63;;;11.00;99.90;;;;;;4910578;28;20191;-66
2023/10/24 04:45:32;;;;;;;5.87;4.07;;;10.90;99.90;;;;;;4910941;28;20192;-67
2023/10/24 04:48:01;;;;;;;9.07;3.80;;;10.90;99.90;;;;;;4904772;28;20220;-67
2023/10/24 04:50:27;;;;;;;11.90;4.23;;;10.90;99.90;;;;;;4909871;28;20188;-67
2023/10/24 04:52:53;;;;;;;10.13;4.20;;;10.90;99.90;;;;;;4910864;28;20685;-68
2023/10/24 04:55:19;;;;;;;8.63;5.37;;;10.80;99.90;;;;;;4911066;28;20180;-67
2023/10/24 04:57:44;;;;;;;9.57;4.63;;;10.80;99.90;;;;;;4910994;28;20422;-67
2023/10/24 05:00:14;;;;;;;13.60;5.13;;;10.80;99.90;;;;;;4910728;28;20192;-66
2023/10/24 05:02:40;;;;;;;9.37;6.00;;;10.80;99.90;;;;;;4911078;28;20176;-66
2023/10/24 05:05:07;;;;;;;8.97;5.37;;;10.80;99.90;;;;;;4903058;28;20223;-65
2023/10/24 05:07:32;;;;;;;12.07;5.77;;;10.80;99.90;;;;;;4902630;28;20208;-67
2023/10/24 05:09:58;;;;;;;11.43;6.40;;;10.70;99.90;;;;;;4910941;28;20187;-67
2023/10/24 05:12:24;;;;;;;9.77;5.87;;;10.70;99.90;;;;;;4910730;28;20258;-66
2023/10/24 05:14:50;;;;;;;9.53;5.50;;;10.60;99.90;;;;;;4910282;28;20180;-66
2023/10/24 05:17:15;;;;;;;12.47;5.10;;;10.60;99.90;;;;;;4910844;28;20180;-67
2023/10/24 05:19:41;;;;;;;9.33;5.23;;;10.60;99.90;;;;;;4913135;28;20188;-66
2023/10/24 05:22:10;;;;;;;10.47;4.53;;;10.60;99.90;;;;;;4914145;28;20184;-66
2023/10/24 05:24:37;;;;;;;12.00;4.87;;;10.60;99.90;;;;;;4913465;28;20191;-65
2023/10/24 05:27:03;;;;;;;10.90;5.33;;;10.60;99.90;;;;;;4914064;28;20187;-66
2023/10/24 05:29:31;;;;;;;9.77;5.20;;;10.60;99.90;;;;;;4913681;28;20199;-66
2023/10/24 05:31:57;;;;;;;9.43;5.27;;;10.60;99.90;;;;;;4914036;28;20192;-67
2023/10/24 05:34:25;;;;;;;10.80;4.40;;;10.50;99.90;;;;;;4912778;28;20218;-67
2023/10/24 05:36:51;;;;;;;11.37;4.00;;;10.50;99.90;;;;;;4913770;28;20234;-66
2023/10/24 05:39:17;;;;;;;7.87;3.30;;;10.60;99.90;;;;;;4913537;28;20715;-66
2023/10/24 05:41:44;;;;;;;7.37;3.73;;;10.60;99.90;;;;;;4913702;28;20173;-66
2023/10/24 05:44:10;;;;;;;7.90;4.33;;;10.60;99.90;;;;;;4913133;28;20184;-66
2023/10/24 05:46:35;;;;;;;8.50;4.07;;;10.60;99.90;;;;;;4913760;28;20634;-67
2023/10/24 05:49:01;;;;;;;14.43;8.17;;;10.60;99.90;;;;;;4913457;28;20759;-67
2023/10/24 05:51:29;;;;;;;16.10;7.90;;;10.60;99.90;;;;;;4913784;28;20211;-66
2023/10/24 05:53:54;;;;;;;7.47;4.30;;;10.50;99.90;;;;;;4912992;28;20204;-66
2023/10/24 05:56:20;;;;;;;8.97;4.47;;;10.50;99.90;;;;;;4913493;28;20696;-67
2023/10/24 05:58:46;;;;;;;33.30;12.03;;;10.50;99.90;;;;;;4913235;28;20199;-66
2023/10/24 06:01:12;;;;;;;20.77;10.33;;;10.50;99.90;;;;;;4913472;28;20184;-66
2023/10/24 06:03:37;;;;;;;16.53;9.13;;;10.50;99.90;;;;;;4912784;28;20188;-66
2023/10/24 06:06:03;;;;;;;10.60;6.60;;;10.50;99.90;;;;;;4913406;28;20199;-66
2023/10/24 06:08:28;;;;;;;12.57;6.03;;;10.50;99.90;;;;;;4913156;28;20283;-66
2023/10/24 06:10:55;;;;;;;23.40;10.90;;;10.50;99.90;;;;;;4913271;28;20192;-67
2023/10/24 06:13:21;;;;;;;19.87;8.90;;;10.50;99.90;;;;;;4912143;28;20219;-66
2023/10/24 06:15:46;;;;;;;7.30;4.80;;;10.50;99.90;;;;;;4913238;28;20192;-66
2023/10/24 06:18:12;;;;;;;10.07;5.37;;;10.60;99.90;;;;;;4913063;28;20200;-66
2023/10/24 06:20:38;;;;;;;14.07;6.77;;;10.60;99.90;;;;;;4913136;28;20188;-66
2023/10/24 06:23:05;;;;;;;11.63;6.70;;;10.60;99.90;;;;;;4912084;28;20345;-66
2023/10/24 06:25:39;;;;;;;12.33;6.13;;;10.50;99.90;;;;;;4912898;28;20282;-66
2023/10/24 06:28:06;;;;;;;10.40;6.10;;;10.60;99.90;;;;;;4912449;28;20219;-66
2023/10/24 06:30:32;;;;;;;13.07;6.67;;;10.60;99.90;;;;;;4911083;28;20280;-66
2023/10/24 06:32:57;;;;;;;11.27;6.20;;;10.60;99.90;;;;;;4911445;28;20224;-66
2023/10/24 06:35:23;;;;;;;15.73;6.03;;;10.60;99.90;;;;;;4912170;28;20195;-66
2023/10/24 06:37:49;;;;;;;10.07;6.20;;;10.60;99.90;;;;;;4907138;28;20209;-66
2023/10/24 06:40:14;;;;;;;9.77;6.37;;;10.60;99.90;;;;;;4909651;28;20548;-66
2023/10/24 06:42:40;;;;;;;14.47;6.93;;;10.60;99.90;;;;;;4910774;28;20184;-66
2023/10/24 06:45:10;;;;;;;11.13;6.90;;;10.70;99.90;;;;;;4911625;28;20195;-67
2023/10/24 06:47:36;;;;;;;10.03;5.70;;;10.70;99.90;;;;;;4911933;28;20224;-66
2023/10/24 06:50:02;;;;;;;10.13;5.50;;;10.70;99.90;;;;;;4912325;28;20183;-66
2023/10/24 06:52:28;;;;;;;9.13;5.50;;;10.70;99.90;;;;;;4911913;28;20660;-66
2023/10/24 06:54:53;;;;;;;9.67;5.93;;;10.70;99.90;;;;;;4911610;28;20191;-66
2023/10/24 06:57:19;;;;;;;15.30;6.93;;;10.70;99.90;;;;;;4911906;28;20188;-67
2023/10/24 06:59:45;;;;;;;28.23;13.70;;;10.80;99.90;;;;;;4912009;28;20267;-66
2023/10/24 07:02:10;;;;;;;23.97;11.10;;;10.80;99.90;;;;;;4911948;28;20192;-66
2023/10/24 07:04:36;;;;;;;20.07;10.27;;;10.80;99.90;;;;;;4902531;28;20221;-67
2023/10/24 07:07:01;;;;;;;17.83;9.00;;;10.90;99.90;;;;;;4911919;28;20191;-66
2023/10/24 07:09:27;;;;;;;12.53;7.00;;;10.90;99.90;;;;;;4911743;28;20207;-66
2023/10/24 07:11:52;;;;;;;10.67;6.63;;;11.00;99.90;;;;;;4911910;28;20219;-67
2023/10/24 07:14:18;;;;;;;30.30;11.47;;;11.10;99.90;;;;;;4901783;28;20239;-66
2023/10/24 07:16:44;;;;;;;16.37;7.83;;;11.10;99.90;;;;;;4911412;28;20665;-66
2023/10/24 07:19:10;;;;;;;11.73;6.87;;;11.10;99.90;;;;;;4911773;28;20204;-67
2023/10/24 07:21:36;;;;;;;11.70;7.47;;;11.20;99.90;;;;;;4911296;28;20180;-66
2023/10/24 07:24:02;;;;;;;14.00;6.80;;;11.20;99.90;;;;;;4911117;28;20727;-67
2023/10/24 07:26:27;;;;;;;16.73;9.23;;;11.30;99.90;;;;;;4911780;28;20200;-65
2023/10/24 07:28:53;;;;;;;19.67;9.03;;;11.30;99.90;;;;;;4911470;28;20219;-67
2023/10/24 07:31:19;;;;;;;14.43;7.67;;;11.40;99.90;;;;;;4911303;28;20192;-66
2023/10/24 07:33:46;;;;;;;9.13;5.90;;;11.40;99.90;;;;;;4910785;28;20287;-66
2023/10/24 07:36:12;;;;;;;8.57;5.07;;;11.50;99.90;;;;;;4911359;28;20186;-66
2023/10/24 07:38:38;;;;;;;12.17;5.00;;;11.50;99.90;;;;;;4908113;28;20200;-66
2023/10/24 07:41:04;;;;;;;10.47;4.90;;;11.60;99.90;;;;;;4907045;28;20179;-66
2023/10/24 07:43:30;;;;;;;8.90;5.33;;;11.70;99.90;;;;;;4902766;28;20571;-66
2023/10/24 07:45:55;;;;;;;12.97;5.20;;;11.80;99.90;;;;;;4911295;28;20668;-67
2023/10/24 07:48:23;;;;;;;22.03;7.53;;;11.90;99.90;;;;;;4910394;28;20530;-66
2023/10/24 07:50:58;;;;;;;77.10;11.60;;;12.00;99.90;;;;;;4911292;28;20199;-68
2023/10/24 07:53:25;;;;;;;49.20;10.60;;;12.10;99.90;;;;;;4909403;28;20517;-68
2023/10/24 07:55:52;;;;;;;12.97;6.70;;;12.30;99.90;;;;;;4911192;28;20527;-66
2023/10/24 07:58:17;;;;;;;10.90;6.40;;;12.40;99.90;;;;;;4910915;28;20208;-66
2023/10/24 08:00:44;;;;;;;12.70;6.60;;;12.50;99.90;;;;;;4911140;28;20184;-67
2023/10/24 08:03:11;;;;;;;13.30;5.47;;;12.50;99.90;;;;;;4910473;28;20267;-66
2023/10/24 08:05:37;;;;;;;11.93;5.67;;;12.60;99.90;;;;;;4911117;28;20644;-67
2023/10/24 08:08:03;;;;;;;8.47;5.30;;;12.60;99.90;;;;;;4911213;28;20219;-66
2023/10/24 08:10:29;;;;;;;15.57;6.73;;;12.50;99.90;;;;;;4910890;28;20204;-67
2023/10/24 08:12:54;;;;;;;14.97;6.33;;;12.60;99.90;;;;;;4902467;28;20270;-67
2023/10/24 08:15:20;;;;;;;8.57;5.90;;;12.60;99.90;;;;;;4910851;28;20194;-67
2023/10/24 08:17:45;;;;;;;10.43;5.80;;;12.60;99.90;;;;;;4910730;28;20215;-66
2023/10/24 08:20:11;;;;;;;12.30;6.03;;;12.60;99.90;;;;;;4903026;28;20534;-66
2023/10/24 08:22:37;;;;;;;11.23;6.23;;;12.70;99.90;;;;;;4911171;28;20188;-66
2023/10/24 08:25:03;;;;;;;11.30;6.60;;;12.70;99.90;;;;;;4910196;28;20602;-66
2023/10/24 08:27:28;;;;;;;11.17;5.73;;;12.70;99.90;;;;;;4902959;28;20630;-66
2023/10/24 08:29:54;;;;;;;10.37;6.50;;;12.70;99.90;;;;;;4905284;28;20211;-66
2023/10/24 08:32:19;;;;;;;18.17;10.13;;;12.80;99.90;;;;;;4908245;28;20188;-67
2023/10/24 08:34:45;;;;;;;9.50;5.87;;;12.80;99.90;;;;;;4902309;28;20243;-66
2023/10/24 08:37:10;;;;;;;39.37;35.37;;;12.80;99.90;;;;;;4903162;28;20196;-66
2023/10/24 08:39:36;;;;;;;9.77;7.40;;;12.80;99.90;;;;;;4910307;28;20719;-67
2023/10/24 08:42:02;;;;;;;12.23;7.30;;;12.70;99.90;;;;;;4910617;28;20562;-67
2023/10/24 08:44:28;;;;;;;16.10;14.07;;;12.80;99.90;;;;;;4909681;28;20188;-67
2023/10/24 08:46:54;;;;;;;10.53;7.30;;;12.80;99.90;;;;;;4910689;28;20195;-67
2023/10/24 08:49:20;;;;;;;14.97;11.07;;;12.80;99.90;;;;;;4902683;28;20229;-66
2023/10/24 08:51:46;;;;;;;8.37;4.80;;;12.80;99.90;;;;;;4910494;28;20184;-67
2023/10/24 08:54:12;;;;;;;8.20;5.07;;;12.80;99.90;;;;;;4911723;28;20218;-67
2023/10/24 08:56:38;;;;;;;8.43;5.27;;;12.80;99.90;;;;;;4913826;28;20176;-67
2023/10/24 08:59:09;;;;;;;31.67;28.23;;;12.70;99.90;;;;;;4905859;28;20468;-66
2023/10/24 09:01:43;;;;;;;8.20;5.87;;;12.80;99.90;;;;;;4913734;28;20184;-67
2023/10/24 09:04:08;;;;;;;8.40;5.63;;;12.80;99.90;;;;;;4913222;28;20255;-67
2023/10/24 09:06:36;;;;;;;13.17;7.97;;;12.80;99.90;;;;;;4913769;28;20198;-67
2023/10/24 09:09:02;;;;;;;6.40;4.77;;;12.80;99.90;;;;;;4913632;28;20696;-66
2023/10/24 09:11:58;;;;;;;6.83;2.90;;;12.80;99.90;;;;;;4913478;28;20188;-66
2023/10/24 09:14:24;;;;;;;5.47;3.43;;;12.80;99.90;;;;;;4912833;28;20299;-67
2023/10/24 09:16:54;;;;;;;5.33;3.20;;;12.80;99.90;;;;;;4913582;28;20180;-66
2023/10/24 09:19:23;;;;;;;11.43;5.27;;;12.80;99.90;;;;;;4913193;28;20227;-66
2023/10/24 09:21:52;;;;;;;7.30;4.63;;;12.90;99.90;;;;;;4913622;28;20183;-68
2023/10/24 09:24:19;;;;;;;9.63;4.37;;;12.90;99.90;;;;;;4912380;28;20188;-68
2023/10/24 09:26:57;;;;;;;6.10;3.83;;;12.90;99.90;;;;;;4913503;28;20211;-68
2023/10/24 09:29:29;;;;;;;11.17;3.93;;;12.90;99.90;;;;;;4913247;28;20211;-68
2023/10/24 09:31:59;;;;;;;5.50;3.40;;;13.00;99.90;;;;;;4913380;28;20184;-68
2023/10/24 09:34:26;;;;;;;8.60;3.93;;;12.90;99.90;;;;;;4912555;28;20581;-68
2023/10/24 09:36:52;;;;;;;7.20;3.60;;;13.00;99.90;;;;;;4913188;28;20176;-66
2023/10/24 09:39:18;;;;;;;7.37;3.57;;;13.20;99.90;;;;;;4913015;28;20259;-67
2023/10/24 09:41:45;;;;;;;5.37;3.40;;;13.20;99.90;;;;;;4913320;28;20649;-68
2023/10/24 09:44:11;;;;;;;7.67;3.27;;;13.30;99.90;;;;;;4912805;28;20250;-69
2023/10/24 09:46:38;;;;;;;5.10;3.13;;;13.40;99.90;;;;;;4909967;28;20685;-68
2023/10/24 09:49:05;;;;;;;4.47;2.83;;;13.50;99.90;;;;;;4903702;28;20277;-67
2023/10/24 09:51:32;;;;;;;6.77;3.10;;;13.60;99.90;;;;;;4922261;28;20186;-66
2023/10/24 09:54:02;;;;;;;5.23;2.50;;;13.70;99.90;;;;;;4911794;28;20211;-66
2023/10/24 09:56:28;;;;;;;9.87;2.50;;;13.80;99.90;;;;;;4912622;28;20195;-66
2023/10/24 09:58:54;;;;;;;6.43;2.80;;;13.80;99.90;;;;;;4912003;28;20203;-66
2023/10/24 10:01:24;;;;;;;4.43;2.47;;;13.90;99.90;;;;;;4912922;28;20726;-66
2023/10/24 10:03:51;;;;;;;3.97;2.10;;;13.80;99.90;;;;;;4912342;28;20183;-68
2023/10/24 10:06:17;;;;;;;3.43;2.30;;;13.90;99.90;;;;;;4944828;28;20234;-66
2023/10/24 10:08:44;;;;;;;4.20;2.20;;;13.90;99.90;;;;;;4912726;28;20223;-68
2023/10/24 10:11:10;;;;;;;3.13;1.83;;;13.90;99.90;;;;;;4913033;28;20184;-68
2023/10/24 10:13:51;;;;;;;3.70;1.47;;;13.80;99.90;;;;;;4909004;28;20270;-68
2023/10/24 10:16:19;;;;;;;4.13;1.00;;;13.80;99.90;;;;;;4909771;28;20828;-68
2023/10/24 10:19:01;;;;;;;4.67;1.20;;;13.80;99.90;;;;;;4912460;28;20279;-68
2023/10/24 10:21:45;;;;;;;3.00;1.10;;;13.70;99.90;;;;;;4912323;28;20200;-68
2023/10/24 10:24:20;;;;;;;2.17;1.10;;;13.70;99.90;;;;;;4911887;28;20207;-67
2023/10/24 10:27:21;;;;;;;3.43;1.23;;;13.70;99.90;;;;;;4905511;28;20203;-67
2023/10/24 10:30:13;;;;;;;3.03;1.00;;;13.80;99.90;;;;;;4928523;28;20201;-68
2023/10/24 10:32:57;;;;;;;3.40;1.20;;;13.90;99.90;;;;;;4912149;28;20263;-68
2023/10/24 10:36:05;;;;;;;1.37;1.07;;;13.90;99.90;;;;;;4912255;28;20180;-67
2023/10/24 10:38:43;;;;;;;4.47;1.13;;;13.80;99.90;;;;;;4912315;28;20208;-67
2023/10/24 10:41:23;;;;;;;5.47;1.10;;;13.80;99.90;;;;;;4912460;28;20283;-68
2023/10/24 10:43:49;;;;;;;5.37;1.20;;;14.00;99.90;;;;;;4911528;28;20242;-68
2023/10/24 10:46:20;;;;;;;5.13;1.20;;;14.00;99.90;;;;;;4912215;28;20263;-67
2023/10/24 10:48:48;;;;;;;1.90;0.90;;;13.90;99.90;;;;;;4912021;28;20214;-67
2023/10/24 10:51:22;;;;;;;5.57;0.93;;;14.00;99.90;;;;;;4911850;28;20184;-66
2023/10/24 10:54:07;;;;;;;1.40;0.80;;;14.00;99.90;;;;;;4939235;28;20210;-66
2023/10/24 10:56:35;;;;;;;3.17;1.10;;;14.00;99.90;;;;;;4909459;28;20191;-67
2023/10/24 10:59:07;;;;;;;5.50;1.20;;;14.00;99.90;;;;;;4906906;28;20677;-67
2023/10/24 11:01:50;;;;;;;7.33;1.70;;;14.10;99.90;;;;;;4911739;28;20238;-67
2023/10/24 11:04:16;;;;;;;3.07;1.60;;;14.30;99.90;;;;;;4903489;28;20258;-66
2023/10/24 11:06:56;;;;;;;2.90;1.40;;;14.40;99.90;;;;;;4944840;28;20195;-67
2023/10/24 11:09:42;;;;;;;4.67;1.50;;;14.40;99.90;;;;;;4911751;28;20649;-66
2023/10/24 11:12:25;;;;;;;3.10;1.00;;;14.50;99.90;;;;;;4904282;28;20667;-69
2023/10/24 11:15:13;;;;;;;2.33;1.00;;;14.60;99.90;;;;;;4904743;28;20647;-66
2023/10/24 11:17:40;;;;;;;2.23;1.40;;;14.70;99.90;;;;;;4902561;28;20199;-65
2023/10/24 11:20:08;;;;;;;4.13;1.30;;;14.70;99.90;;;;;;4911748;28;20641;-66
2023/10/24 11:22:34;;;;;;;6.20;1.23;;;14.90;99.90;;;;;;4911595;28;20267;-65
2023/10/24 11:24:59;;;;;;;4.23;1.10;;;14.90;99.90;;;;;;4911082;28;20241;-65
2023/10/24 11:27:25;;;;;;;2.73;1.10;;;15.00;99.90;;;;;;4911426;28;20294;-66
2023/10/24 11:29:51;;;;;;;5.27;1.00;;;15.10;99.90;;;;;;4906911;28;20192;-65
2023/10/24 11:32:17;;;;;;;4.23;1.40;;;15.10;99.90;;;;;;4908431;28;20183;-66
2023/10/24 11:34:44;;;;;;;1.97;1.20;;;15.20;99.90;;;;;;4910718;28;20684;-66
2023/10/24 11:37:09;;;;;;;2.90;1.33;;;15.10;99.90;;;;;;4904568;28;20202;-66
2023/10/24 11:39:35;;;;;;;3.03;1.20;;;15.20;99.90;;;;;;4903326;28;20257;-65
2023/10/24 11:42:04;;;;;;;3.50;1.67;;;15.20;99.90;;;;;;4911235;28;20176;-67
2023/10/24 11:44:29;;;;;;;7.00;1.80;;;15.00;99.90;;;;;;4910700;28;20238;-66
2023/10/24 11:46:55;;;;;;;6.97;1.63;;;15.00;99.90;;;;;;4911605;28;20203;-66
2023/10/24 11:49:34;;;;;;;5.07;1.67;;;15.00;99.90;;;;;;4910970;28;20283;-67
2023/10/24 11:52:00;;;;;;;3.70;1.20;;;15.00;99.90;;;;;;4911385;28;20205;-66
2023/10/24 11:54:26;;;;;;;3.53;1.00;;;14.90;99.90;;;;;;4902677;28;20247;-66
2023/10/24 11:56:55;;;;;;;3.10;1.30;;;14.80;99.90;;;;;;4911222;28;20242;-66
2023/10/24 11:59:21;;;;;;;3.70;1.10;;;14.80;99.90;;;;;;4910864;28;20280;-66
2023/10/24 12:01:47;;;;;;;2.33;1.37;;;14.70;99.90;;;;;;4911192;28;20204;-66
2023/10/24 12:04:13;;;;;;;3.93;1.40;;;14.70;99.90;;;;;;4910675;28;20180;-65
2023/10/24 12:06:39;;;;;;;5.60;1.70;;;14.70;99.90;;;;;;4911491;28;20258;-66
2023/10/24 12:09:06;;;;;;;4.20;1.47;;;14.70;99.90;;;;;;4911079;28;20261;-66
2023/10/24 12:11:35;;;;;;;3.50;2.10;;;14.60;99.90;;;;;;4909946;28;20615;-67
2023/10/24 12:14:01;;;;;;;3.67;1.70;;;14.50;99.90;;;;;;4909696;28;20211;-65
2023/10/24 12:16:34;;;;;;;2.57;1.30;;;14.40;99.90;;;;;;4910736;28;20230;-67
2023/10/24 12:19:00;;;;;;;4.40;1.30;;;14.40;99.90;;;;;;4910797;28;20278;-67
2023/10/24 12:21:26;;;;;;;5.90;1.60;;;14.40;99.90;;;;;;4910626;28;20282;-66
2023/10/24 12:23:52;;;;;;;3.70;1.50;;;14.30;99.90;;;;;;4910593;28;20258;-66
2023/10/24 12:26:17;;;;;;;4.20;1.63;;;14.30;99.90;;;;;;4903197;28;20184;-66
2023/10/24 12:28:43;;;;;;;5.83;1.90;;;14.30;99.90;;;;;;4910003;28;20691;-66
2023/10/24 12:31:12;;;;;;;5.17;1.60;;;14.10;99.90;;;;;;4910785;28;20672;-66
2023/10/24 12:33:38;;;;;;;4.47;1.47;;;14.10;99.90;;;;;;4908574;28;20204;-67
2023/10/24 12:36:06;;;;;;;2.83;1.20;;;14.10;99.90;;;;;;4909598;28;20183;-67
2023/10/24 12:38:32;;;;;;;2.77;1.27;;;14.20;99.90;;;;;;4909819;28;20211;-67
2023/10/24 12:40:58;;;;;;;6.43;1.37;;;14.20;99.90;;;;;;4910628;28;20528;-67